Time;durP1;ratioP1;P1;durP2;ratioP2;P2;SDS_P1;SDS_P2;PMS_P1;PMS_P2;Temp;Humidity;BMP_temperature;BMP_pressure;BME280_temperature;BME280_humidity;BME280_pressure;Samples;Min_cycle;Max_cycle;Signal;HPM_P1;HPM_P2
2022/10/19 00:00:25;;;;;;;10.63;2.10;;;11.20;1.00;;;;;;5035054;28;20978;-54
2022/10/19 00:02:51;;;;;;;10.50;1.43;;;11.20;1.00;;;;;;5033746;28;20264;-54
2022/10/19 00:05:16;;;;;;;8.20;2.30;;;11.10;1.00;;;;;;5035731;28;20210;-55
2022/10/19 00:07:42;;;;;;;6.50;1.60;;;11.20;1.00;;;;;;5042355;28;20195;-55
2022/10/19 00:10:08;;;;;;;9.83;1.90;;;11.20;1.00;;;;;;5035800;28;20198;-55
2022/10/19 00:12:34;;;;;;;10.23;2.10;;;11.10;1.00;;;;;;5038257;28;20659;-54
2022/10/19 00:14:59;;;;;;;5.03;1.67;;;11.20;1.00;;;;;;5034743;28;20437;-55
2022/10/19 00:17:25;;;;;;;9.20;2.03;;;11.20;1.00;;;;;;5035879;28;20194;-54
2022/10/19 00:19:51;;;;;;;6.03;1.73;;;11.20;1.00;;;;;;5033463;28;20194;-54
2022/10/19 00:22:16;;;;;;;7.33;1.73;;;11.20;1.00;;;;;;5032044;28;20223;-52
2022/10/19 00:24:42;;;;;;;11.33;2.53;;;11.30;1.00;;;;;;5033336;28;20191;-53
2022/10/19 00:27:08;;;;;;;12.27;1.77;;;11.20;1.00;;;;;;5033736;28;20195;-53
2022/10/19 00:29:33;;;;;;;6.87;1.63;;;11.30;1.00;;;;;;5033719;28;20984;-53
2022/10/19 00:31:59;;;;;;;7.30;2.10;;;11.20;1.00;;;;;;5039197;28;20202;-53
2022/10/19 00:34:25;;;;;;;6.23;1.40;;;11.20;1.00;;;;;;5041669;28;20191;-51
2022/10/19 00:36:50;;;;;;;9.30;1.73;;;11.20;1.00;;;;;;5033179;28;20253;-53
2022/10/19 00:39:17;;;;;;;9.33;1.53;;;11.20;1.00;;;;;;5046297;28;20205;-53
2022/10/19 00:41:45;;;;;;;11.37;1.30;;;11.20;1.00;;;;;;5040258;28;20257;-53
2022/10/19 00:44:10;;;;;;;10.37;1.70;;;11.30;1.00;;;;;;5032451;28;20562;-55
2022/10/19 00:46:38;;;;;;;7.03;1.50;;;11.20;1.00;;;;;;5032409;28;20437;-52
2022/10/19 00:49:12;;;;;;;5.70;1.40;;;11.20;1.00;;;;;;5031802;28;20498;-52
2022/10/19 00:51:41;;;;;;;4.30;1.20;;;11.20;1.00;;;;;;5047046;28;20782;-53
2022/10/19 00:54:08;;;;;;;13.57;1.57;;;11.20;1.00;;;;;;5033183;28;20457;-52
2022/10/19 00:56:34;;;;;;;12.73;2.07;;;11.30;1.00;;;;;;5035191;28;22300;-51
2022/10/19 00:59:03;;;;;;;11.70;1.40;;;11.20;1.00;;;;;;5032236;28;20463;-52
2022/10/19 01:01:30;;;;;;;5.37;1.20;;;11.20;1.00;;;;;;5031401;28;20465;-49
2022/10/19 01:03:56;;;;;;;8.87;2.67;;;11.20;1.00;;;;;;5034418;28;20444;-52
2022/10/19 01:06:23;;;;;;;10.03;1.80;;;11.20;1.00;;;;;;5039207;28;20914;-52
2022/10/19 01:08:48;;;;;;;6.37;1.53;;;11.30;1.00;;;;;;5037645;28;20198;-51
2022/10/19 01:11:22;;;;;;;7.67;1.77;;;11.30;1.00;;;;;;5034557;28;20441;-52
2022/10/19 01:14:10;;;;;;;7.20;1.43;;;11.30;1.00;;;;;;5034752;28;20547;-52
2022/10/19 01:16:53;;;;;;;6.80;1.53;;;11.30;1.00;;;;;;5033029;28;20583;-53
2022/10/19 01:19:44;;;;;;;8.50;1.60;;;11.20;1.00;;;;;;5032657;28;20872;-54
2022/10/19 01:22:29;;;;;;;9.70;1.53;;;11.30;1.00;;;;;;5035960;28;20476;-53
2022/10/19 01:25:21;;;;;;;3.50;1.30;;;11.20;1.00;;;;;;5032743;28;20422;-53
2022/10/19 01:28:04;;;;;;;6.33;1.50;;;11.20;1.00;;;;;;5031279;28;20430;-52
2022/10/19 01:30:54;;;;;;;5.57;1.50;;;11.20;1.00;;;;;;5038157;28;20949;-51
2022/10/19 01:33:44;;;;;;;8.30;1.53;;;11.20;1.00;;;;;;5030216;28;20453;-52
2022/10/19 01:36:31;;;;;;;9.70;2.00;;;11.30;1.00;;;;;;5038132;28;20441;-53
2022/10/19 01:39:18;;;;;;;5.03;1.40;;;11.30;1.00;;;;;;5040574;28;20467;-53
2022/10/19 01:41:50;;;;;;;6.97;1.53;;;11.20;1.00;;;;;;5027596;28;20476;-53
2022/10/19 01:44:24;;;;;;;10.27;1.93;;;11.30;1.00;;;;;;5033583;28;20485;-52
2022/10/19 01:46:59;;;;;;;5.23;1.37;;;11.30;1.00;;;;;;5034492;28;20445;-52
2022/10/19 01:49:33;;;;;;;7.70;1.90;;;11.30;1.00;;;;;;5026819;28;20456;-52
2022/10/19 01:52:04;;;;;;;7.63;1.50;;;11.30;1.00;;;;;;5034383;28;20433;-52
2022/10/19 01:54:36;;;;;;;9.60;1.67;;;11.30;1.00;;;;;;5033882;28;20815;-52
2022/10/19 01:57:06;;;;;;;6.13;1.40;;;11.30;1.00;;;;;;5032434;28;20528;-51
2022/10/19 01:59:32;;;;;;;16.33;2.10;;;11.30;1.00;;;;;;5031699;28;21213;-52
2022/10/19 02:01:58;;;;;;;10.17;2.00;;;11.30;1.00;;;;;;5030257;28;20971;-52
2022/10/19 02:04:24;;;;;;;8.53;1.37;;;11.20;99.90;;;;;;5036051;28;20452;-51
2022/10/19 02:06:52;;;;;;;9.27;1.87;;;11.20;99.90;;;;;;5037369;28;20497;-51
2022/10/19 02:09:19;;;;;;;11.10;1.73;;;11.20;99.90;;;;;;5032413;28;20453;-51
2022/10/19 02:11:55;;;;;;;8.80;1.83;;;11.20;99.90;;;;;;5031303;28;20868;-50
2022/10/19 02:14:26;;;;;;;6.37;1.80;;;11.20;99.90;;;;;;5025755;28;20958;-51
2022/10/19 02:17:18;;;;;;;7.23;1.50;;;11.10;99.90;;;;;;5033321;28;20477;-50
2022/10/19 02:19:43;;;;;;;4.97;1.20;;;11.10;99.90;;;;;;5028291;28;20457;-50
2022/10/19 02:22:10;;;;;;;8.07;1.70;;;11.20;99.90;;;;;;5030964;28;20547;-50
2022/10/19 02:24:36;;;;;;;10.80;1.53;;;11.10;99.90;;;;;;5033124;28;20272;-51
2022/10/19 02:27:04;;;;;;;10.50;1.53;;;11.10;99.90;;;;;;5032742;28;20445;-50
2022/10/19 02:29:31;;;;;;;9.87;1.70;;;11.10;99.90;;;;;;5034924;28;20509;-50
2022/10/19 02:31:57;;;;;;;8.83;1.57;;;11.10;99.90;;;;;;5030429;28;20445;-50
2022/10/19 02:34:23;;;;;;;7.23;1.53;;;11.10;99.90;;;;;;5036480;28;20961;-48
2022/10/19 02:36:49;;;;;;;7.53;1.70;;;11.10;99.90;;;;;;5031630;28;20664;-50
2022/10/19 02:39:14;;;;;;;10.00;1.27;;;11.10;99.90;;;;;;5037123;28;20724;-49
2022/10/19 02:41:46;;;;;;;5.53;1.50;;;11.00;71.60;;;;;;5029675;28;20298;-49
2022/10/19 02:44:22;;;;;;;8.83;1.63;;;11.10;2.70;;;;;;5032080;28;20242;-50
2022/10/19 02:47:06;;;;;;;7.87;1.70;;;11.00;1.00;;;;;;5036797;28;20440;-49
2022/10/19 02:49:34;;;;;;;10.63;1.53;;;11.00;99.90;;;;;;5024013;28;20429;-48
2022/10/19 02:52:04;;;;;;;3.07;1.30;;;11.00;99.90;;;;;;5030959;28;20500;-48
2022/10/19 02:54:30;;;;;;;8.27;1.50;;;11.00;99.90;;;;;;5030283;28;20528;-49
2022/10/19 02:56:56;;;;;;;7.43;1.30;;;11.00;1.00;;;;;;5031156;28;20461;-49
2022/10/19 02:59:22;;;;;;;4.33;1.27;;;11.00;1.00;;;;;;5029443;28;20191;-50
2022/10/19 03:01:48;;;;;;;5.90;1.17;;;11.00;99.90;;;;;;5034443;28;20620;-49
2022/10/19 03:04:14;;;;;;;6.57;1.73;;;11.10;41.10;;;;;;5041452;28;20693;-49
2022/10/19 03:06:39;;;;;;;9.80;2.03;;;11.00;1.00;;;;;;5044987;28;20205;-48
2022/10/19 03:09:05;;;;;;;8.27;1.20;;;11.00;99.90;;;;;;5030113;28;20457;-49
2022/10/19 03:11:30;;;;;;;7.30;1.67;;;11.00;1.00;;;;;;5030703;28;20202;-48
2022/10/19 03:13:56;;;;;;;6.13;1.33;;;11.00;99.90;;;;;;5031564;28;20198;-49
2022/10/19 03:16:22;;;;;;;4.60;1.23;;;11.00;99.90;;;;;;5034023;28;21032;-48
2022/10/19 03:18:48;;;;;;;4.13;1.40;;;10.90;1.00;;;;;;5030782;28;20537;-49
2022/10/19 03:21:14;;;;;;;6.30;1.40;;;10.90;1.00;;;;;;5042044;28;20221;-48
2022/10/19 03:23:40;;;;;;;14.30;1.87;;;10.90;99.90;;;;;;5029244;28;20441;-50
2022/10/19 03:26:07;;;;;;;7.73;1.70;;;10.90;99.90;;;;;;5031977;28;20194;-49
2022/10/19 03:28:33;;;;;;;8.37;1.63;;;10.90;1.00;;;;;;5029957;28;20512;-49
2022/10/19 03:30:59;;;;;;;11.77;1.83;;;11.00;99.90;;;;;;5030548;28;20838;-49
2022/10/19 03:33:25;;;;;;;6.63;1.30;;;11.00;99.90;;;;;;5029827;28;20525;-49
2022/10/19 03:36:10;;;;;;;8.83;1.40;;;11.00;99.90;;;;;;5030300;28;20283;-49
2022/10/19 03:38:36;;;;;;;3.20;1.10;;;11.00;99.90;;;;;;5037706;28;20230;-48
2022/10/19 03:41:07;;;;;;;8.10;1.27;;;11.00;99.90;;;;;;5031894;28;20555;-48
2022/10/19 03:43:33;;;;;;;13.03;1.10;;;10.90;99.90;;;;;;5037154;28;20240;-49
2022/10/19 03:45:59;;;;;;;6.53;1.17;;;10.90;99.90;;;;;;5033818;28;20436;-49
2022/10/19 03:48:24;;;;;;;6.17;1.30;;;10.90;1.00;;;;;;5030056;28;20214;-50
2022/10/19 03:50:59;;;;;;;6.33;1.30;;;10.90;1.00;;;;;;5035868;28;20210;-49
2022/10/19 03:53:25;;;;;;;6.47;1.20;;;10.90;1.00;;;;;;5030430;28;20190;-48
2022/10/19 03:55:50;;;;;;;11.27;1.77;;;10.80;1.00;;;;;;5030640;28;20452;-49
2022/10/19 03:58:17;;;;;;;2.73;1.00;;;10.80;1.00;;;;;;5033417;28;20201;-49
2022/10/19 04:00:42;;;;;;;9.83;1.43;;;10.80;1.00;;;;;;5029513;28;20214;-49
2022/10/19 04:03:08;;;;;;;12.90;2.40;;;10.80;1.00;;;;;;5044159;28;20902;-50
2022/10/19 04:05:33;;;;;;;6.13;1.37;;;10.80;1.00;;;;;;5040400;28;20186;-48
2022/10/19 04:07:59;;;;;;;2.97;1.30;;;10.80;1.00;;;;;;5035004;28;20218;-49
2022/10/19 04:10:24;;;;;;;5.57;1.27;;;10.90;1.00;;;;;;5032437;28;20210;-49
2022/10/19 04:12:50;;;;;;;7.43;1.50;;;10.80;1.00;;;;;;5031388;28;20558;-49
2022/10/19 04:15:16;;;;;;;9.90;1.20;;;10.80;1.00;;;;;;5034344;28;20625;-48
2022/10/19 04:17:41;;;;;;;8.07;1.40;;;10.80;1.00;;;;;;5031057;28;20249;-49
2022/10/19 04:20:07;;;;;;;8.93;1.67;;;10.90;1.00;;;;;;5029907;28;20278;-49
2022/10/19 04:22:33;;;;;;;6.87;1.43;;;10.90;1.00;;;;;;5030089;28;20187;-49
2022/10/19 04:24:58;;;;;;;3.13;1.30;;;10.80;1.00;;;;;;5034394;28;20433;-49
2022/10/19 04:27:24;;;;;;;6.70;1.33;;;10.80;1.00;;;;;;5036340;28;20256;-50
2022/10/19 04:29:49;;;;;;;7.30;1.40;;;10.80;1.00;;;;;;5037041;28;20233;-49
2022/10/19 04:32:15;;;;;;;7.53;1.57;;;10.80;1.00;;;;;;5035883;28;20194;-49
2022/10/19 04:34:40;;;;;;;4.73;1.30;;;10.80;1.00;;;;;;5032536;28;20190;-49
2022/10/19 04:37:06;;;;;;;13.00;2.17;;;10.80;1.00;;;;;;5034724;28;20248;-49
2022/10/19 04:39:32;;;;;;;5.43;1.60;;;10.80;1.00;;;;;;5033936;28;20191;-50
2022/10/19 04:41:57;;;;;;;7.80;1.67;;;10.80;1.00;;;;;;5036763;28;20232;-49
2022/10/19 04:44:23;;;;;;;6.17;1.80;;;10.80;1.00;;;;;;5032857;28;20242;-49
2022/10/19 04:46:48;;;;;;;7.70;1.40;;;10.80;1.00;;;;;;5061412;28;20206;-49
2022/10/19 04:49:14;;;;;;;9.27;2.13;;;10.80;1.00;;;;;;5034199;28;20187;-49
2022/10/19 04:51:40;;;;;;;7.90;1.50;;;10.80;1.00;;;;;;5041220;28;20194;-50
2022/10/19 04:54:05;;;;;;;4.53;1.37;;;10.80;1.00;;;;;;5032874;28;20626;-49
2022/10/19 04:56:31;;;;;;;11.03;1.90;;;10.80;1.00;;;;;;5035955;28;20588;-49
2022/10/19 04:58:58;;;;;;;8.23;1.53;;;10.80;1.00;;;;;;5033438;28;20183;-48
2022/10/19 05:01:25;;;;;;;8.43;1.63;;;10.80;1.00;;;;;;5035187;28;20810;-49
2022/10/19 05:03:59;;;;;;;10.47;2.47;;;10.80;1.00;;;;;;5030439;28;20906;-50
2022/10/19 05:06:25;;;;;;;9.77;1.70;;;10.80;1.00;;;;;;5029160;28;20531;-50
2022/10/19 05:08:51;;;;;;;7.60;1.40;;;10.80;14.10;;;;;;5033764;28;20536;-49
2022/10/19 05:11:17;;;;;;;7.33;1.80;;;10.80;63.30;;;;;;5032109;28;20560;-48
2022/10/19 05:13:44;;;;;;;3.53;1.10;;;10.70;99.90;;;;;;5031887;28;20195;-49
2022/10/19 05:16:12;;;;;;;7.13;2.10;;;10.80;99.90;;;;;;5035218;28;20464;-49
2022/10/19 05:18:38;;;;;;;9.20;1.80;;;10.70;99.90;;;;;;5032854;28;20468;-50
2022/10/19 05:21:12;;;;;;;5.33;1.70;;;10.70;99.90;;;;;;5034899;28;20461;-49
2022/10/19 05:23:39;;;;;;;9.97;1.70;;;10.70;99.90;;;;;;5034373;28;20442;-49
2022/10/19 05:26:09;;;;;;;13.10;1.93;;;10.70;99.90;;;;;;5035256;28;20448;-50
2022/10/19 05:28:35;;;;;;;4.40;1.40;;;10.80;99.90;;;;;;5034244;28;20430;-49
2022/10/19 05:31:19;;;;;;;7.20;1.30;;;10.80;99.90;;;;;;5034315;28;20444;-49
2022/10/19 05:33:45;;;;;;;12.37;1.90;;;10.80;99.90;;;;;;5033277;28;20445;-49
2022/10/19 05:36:11;;;;;;;12.20;1.80;;;10.80;99.90;;;;;;5032036;28;20449;-49
2022/10/19 05:38:36;;;;;;;12.17;2.00;;;10.80;96.60;;;;;;5035404;28;20438;-48
2022/10/19 05:41:02;;;;;;;8.30;1.50;;;10.80;99.90;;;;;;5032770;28;20210;-50
2022/10/19 05:43:27;;;;;;;5.03;1.50;;;10.80;99.90;;;;;;5035140;28;20210;-49
2022/10/19 05:45:53;;;;;;;8.43;1.77;;;10.80;99.90;;;;;;5039363;28;20193;-49
2022/10/19 05:48:18;;;;;;;5.00;1.50;;;10.80;99.90;;;;;;5032644;28;20190;-49
2022/10/19 05:50:54;;;;;;;3.77;1.43;;;10.80;99.90;;;;;;5036708;28;20270;-50
2022/10/19 05:53:20;;;;;;;9.10;1.50;;;10.80;99.90;;;;;;5032884;28;20218;-50
2022/10/19 05:55:45;;;;;;;10.93;2.33;;;10.80;99.90;;;;;;5034468;28;20434;-49
2022/10/19 05:58:11;;;;;;;7.90;1.77;;;10.80;99.90;;;;;;5029430;28;20201;-49
2022/10/19 06:00:37;;;;;;;8.00;2.10;;;10.80;99.90;;;;;;5036180;28;20293;-51
2022/10/19 06:03:02;;;;;;;7.80;2.00;;;10.80;99.90;;;;;;5042643;28;20187;-49
2022/10/19 06:05:28;;;;;;;12.27;1.80;;;10.90;99.90;;;;;;5032947;28;20630;-49
2022/10/19 06:07:53;;;;;;;11.30;1.70;;;10.90;99.90;;;;;;5031326;28;20187;-50
2022/10/19 06:10:20;;;;;;;7.10;2.07;;;10.80;99.90;;;;;;5031915;28;20325;-49
2022/10/19 06:12:46;;;;;;;14.03;1.97;;;10.80;99.90;;;;;;5033178;28;20303;-49
2022/10/19 06:15:12;;;;;;;7.30;1.83;;;10.80;99.90;;;;;;5032288;28;20433;-49
2022/10/19 06:17:37;;;;;;;5.23;1.40;;;10.80;99.90;;;;;;5032248;28;20488;-49
2022/10/19 06:20:04;;;;;;;15.53;1.80;;;10.90;99.90;;;;;;5036259;28;20240;-49
2022/10/19 06:22:29;;;;;;;11.60;2.30;;;10.90;99.90;;;;;;5041122;28;20213;-50
2022/10/19 06:24:55;;;;;;;10.43;1.90;;;10.90;1.00;;;;;;5033117;28;20789;-48
2022/10/19 06:27:21;;;;;;;16.13;2.30;;;10.90;99.90;;;;;;5031224;28;20260;-49
2022/10/19 06:29:47;;;;;;;17.63;2.30;;;10.90;99.90;;;;;;5030446;28;21605;-48
2022/10/19 06:32:13;;;;;;;13.80;1.97;;;11.00;99.90;;;;;;5027962;28;20488;-49
2022/10/19 06:34:39;;;;;;;9.00;1.93;;;11.00;99.90;;;;;;5031454;28;20454;-49
2022/10/19 06:37:04;;;;;;;7.47;1.70;;;11.00;99.90;;;;;;5048412;28;20965;-50
2022/10/19 06:39:30;;;;;;;11.43;1.80;;;11.00;99.90;;;;;;5031715;28;20822;-50
2022/10/19 06:41:55;;;;;;;14.53;1.70;;;11.10;99.90;;;;;;5030396;28;20301;-50
2022/10/19 06:44:21;;;;;;;9.37;1.63;;;11.10;99.90;;;;;;5026724;28;20235;-50
2022/10/19 06:46:47;;;;;;;9.70;1.80;;;11.20;99.90;;;;;;5028720;28;20183;-49
2022/10/19 06:49:13;;;;;;;13.90;2.33;;;11.30;99.90;;;;;;5028305;28;20193;-49
2022/10/19 06:51:39;;;;;;;12.43;1.90;;;11.30;99.90;;;;;;5028859;28;20226;-50
2022/10/19 06:54:05;;;;;;;7.43;2.10;;;11.40;99.90;;;;;;5025405;28;21234;-50
2022/10/19 06:56:31;;;;;;;5.50;1.87;;;11.40;99.90;;;;;;5031288;28;20457;-50
2022/10/19 06:58:57;;;;;;;11.80;2.30;;;11.50;99.90;;;;;;5024004;28;20472;-50
2022/10/19 07:01:23;;;;;;;8.73;2.10;;;11.60;1.00;;;;;;5031737;28;20288;-49
2022/10/19 07:03:50;;;;;;;11.77;1.97;;;11.60;1.00;;;;;;5029614;28;20847;-49
2022/10/19 07:06:16;;;;;;;7.47;2.10;;;11.70;1.00;;;;;;5030265;28;20447;-49
2022/10/19 07:08:43;;;;;;;8.83;1.87;;;11.70;1.00;;;;;;5030758;28;20417;-49
2022/10/19 07:11:11;;;;;;;11.93;2.27;;;11.80;99.90;;;;;;5031085;28;20822;-49
2022/10/19 07:13:37;;;;;;;12.00;1.90;;;12.00;99.90;;;;;;5028607;28;20838;-49
2022/10/19 07:16:06;;;;;;;13.40;2.00;;;12.10;99.90;;;;;;5030894;28;20414;-48
2022/10/19 07:18:36;;;;;;;16.97;2.20;;;12.10;99.90;;;;;;5030412;28;20434;-49
2022/10/19 07:21:05;;;;;;;18.70;2.10;;;12.20;99.90;;;;;;5029608;28;20480;-48
2022/10/19 07:23:32;;;;;;;13.27;2.40;;;12.20;99.90;;;;;;5022954;28;20433;-49
2022/10/19 07:26:02;;;;;;;11.77;2.10;;;12.20;99.90;;;;;;5033592;28;20429;-49
2022/10/19 07:28:29;;;;;;;10.27;2.27;;;12.10;99.90;;;;;;5029062;28;20460;-48
2022/10/19 07:30:55;;;;;;;15.10;2.57;;;12.10;99.90;;;;;;5030426;28;20440;-49
2022/10/19 07:33:21;;;;;;;15.60;2.00;;;12.10;99.90;;;;;;5030570;28;20869;-49
2022/10/19 07:35:46;;;;;;;12.83;1.70;;;12.10;99.90;;;;;;5042270;28;20175;-48
2022/10/19 07:38:12;;;;;;;17.10;2.10;;;11.90;99.90;;;;;;5030779;28;20183;-48
2022/10/19 07:40:37;;;;;;;6.10;1.90;;;11.90;99.90;;;;;;5029823;28;20297;-49
2022/10/19 07:43:03;;;;;;;11.40;1.90;;;12.00;99.90;;;;;;5030165;28;20202;-48
2022/10/19 07:45:29;;;;;;;13.03;2.13;;;12.20;99.90;;;;;;5031225;28;20549;-48
2022/10/19 07:47:55;;;;;;;7.40;1.80;;;12.80;99.90;;;;;;5029969;28;20591;-48
2022/10/19 07:50:23;;;;;;;8.03;2.00;;;13.60;99.90;;;;;;5027859;28;20195;-48
2022/10/19 07:52:51;;;;;;;11.97;2.30;;;14.60;1.00;;;;;;5024738;28;20451;-48
2022/10/19 07:55:16;;;;;;;4.43;1.70;;;15.70;1.00;;;;;;5023851;28;20449;-47
2022/10/19 07:57:42;;;;;;;7.07;1.60;;;17.10;1.00;;;;;;5025706;28;20434;-48
2022/10/19 08:00:08;;;;;;;4.40;1.63;;;17.80;1.00;;;;;;5029155;28;20187;-47
2022/10/19 08:02:34;;;;;;;6.90;1.40;;;18.10;1.00;;;;;;5031992;28;20276;-47
2022/10/19 08:04:59;;;;;;;9.80;2.20;;;18.50;1.00;;;;;;5031342;28;20450;-47
2022/10/19 08:07:25;;;;;;;8.13;1.80;;;18.80;1.00;;;;;;5033806;28;20183;-46
2022/10/19 08:09:50;;;;;;;7.87;1.90;;;19.00;1.00;;;;;;5032848;28;20214;-47
2022/10/19 08:12:16;;;;;;;18.47;2.50;;;19.20;1.00;;;;;;5033194;28;20195;-46
2022/10/19 08:14:41;;;;;;;7.53;1.67;;;18.80;1.00;;;;;;5027102;28;20187;-46
2022/10/19 08:17:10;;;;;;;6.80;1.73;;;18.20;1.00;;;;;;5032685;28;20218;-47
2022/10/19 08:19:40;;;;;;;7.53;1.97;;;17.50;1.00;;;;;;5031473;28;20278;-47
2022/10/19 08:22:05;;;;;;;13.43;2.53;;;16.80;1.00;;;;;;5029582;28;20504;-47
2022/10/19 08:24:31;;;;;;;9.17;2.00;;;16.00;1.00;;;;;;5033925;28;20460;-47
2022/10/19 08:26:57;;;;;;;13.03;2.73;;;15.40;1.00;;;;;;5033745;28;20179;-47
2022/10/19 08:29:23;;;;;;;14.80;2.03;;;14.90;1.00;;;;;;5033681;28;20390;-48
2022/10/19 08:31:49;;;;;;;5.83;2.00;;;14.60;1.00;;;;;;5033831;28;20179;-48
2022/10/19 08:34:15;;;;;;;5.40;1.33;;;14.30;1.00;;;;;;5033608;28;20179;-48
2022/10/19 08:36:40;;;;;;;9.03;1.53;;;14.10;1.00;;;;;;5033848;28;20414;-48
2022/10/19 08:39:08;;;;;;;4.33;1.40;;;13.80;1.00;;;;;;5033755;28;20418;-48
2022/10/19 08:41:40;;;;;;;7.27;1.50;;;13.60;1.00;;;;;;5033604;28;20214;-47
2022/10/19 08:44:37;;;;;;;9.03;1.80;;;13.40;1.00;;;;;;5033455;28;20476;-47
2022/10/19 08:47:13;;;;;;;6.70;1.70;;;13.30;1.00;;;;;;5033525;28;20485;-48
2022/10/19 08:49:40;;;;;;;10.93;1.70;;;13.20;1.00;;;;;;5033943;28;20425;-48
2022/10/19 08:52:24;;;;;;;6.60;1.60;;;13.10;1.00;;;;;;5053380;28;20408;-47
2022/10/19 08:54:56;;;;;;;10.37;1.80;;;13.10;1.00;;;;;;5043235;28;20921;-47
2022/10/19 08:57:31;;;;;;;5.97;2.13;;;13.10;1.00;;;;;;5033299;28;20418;-47
2022/10/19 09:00:12;;;;;;;10.07;2.00;;;13.10;1.00;;;;;;5033198;28;20440;-47
2022/10/19 09:03:00;;;;;;;7.10;1.70;;;13.10;1.00;;;;;;5033276;28;20540;-48
2022/10/19 09:05:49;;;;;;;9.17;1.53;;;13.30;1.00;;;;;;5033049;28;20416;-47
2022/10/19 09:08:16;;;;;;;7.17;1.40;;;13.50;1.00;;;;;;5011942;28;20439;-47
2022/10/19 09:10:46;;;;;;;5.33;1.30;;;13.60;1.00;;;;;;5012869;28;20880;-47
2022/10/19 09:13:33;;;;;;;6.47;1.50;;;13.80;1.00;;;;;;5013306;28;20794;-46
2022/10/19 09:15:59;;;;;;;5.20;1.13;;;14.00;1.00;;;;;;5013371;28;20410;-46
2022/10/19 09:18:28;;;;;;;4.30;1.50;;;14.20;1.00;;;;;;5013097;28;20888;-46
2022/10/19 09:21:22;;;;;;;8.13;1.60;;;14.40;1.00;;;;;;5012913;28;20466;-47
2022/10/19 09:24:03;;;;;;;8.43;1.87;;;14.50;1.00;;;;;;5012127;28;20458;-47
2022/10/19 09:26:33;;;;;;;5.43;1.50;;;14.60;1.00;;;;;;5012974;28;20418;-48
2022/10/19 09:29:02;;;;;;;14.13;2.17;;;14.60;1.00;;;;;;5012943;28;21000;-48
2022/10/19 09:31:37;;;;;;;10.27;1.87;;;14.50;1.00;;;;;;5012968;28;20865;-48
2022/10/19 09:34:14;;;;;;;13.30;2.23;;;14.50;1.00;;;;;;5012670;28;20398;-48
2022/10/19 09:36:42;;;;;;;6.63;1.87;;;14.40;1.00;;;;;;5019156;28;20532;-47
2022/10/19 09:39:12;;;;;;;8.33;2.07;;;14.30;1.00;;;;;;5029007;28;20464;-48
2022/10/19 09:41:45;;;;;;;8.63;1.83;;;14.30;1.00;;;;;;5031681;28;20461;-48
2022/10/19 09:44:12;;;;;;;12.70;1.63;;;14.20;1.00;;;;;;5034897;28;20489;-49
2022/10/19 09:46:50;;;;;;;8.23;2.00;;;14.20;1.00;;;;;;5032643;28;20477;-47
2022/10/19 09:49:35;;;;;;;8.23;1.77;;;14.10;1.00;;;;;;5032190;28;20508;-47
2022/10/19 09:52:01;;;;;;;8.50;2.13;;;14.20;1.00;;;;;;5032275;28;20414;-47
2022/10/19 09:54:38;;;;;;;11.60;1.70;;;14.20;1.00;;;;;;5032205;28;20480;-47
2022/10/19 09:57:04;;;;;;;7.23;1.90;;;14.30;1.00;;;;;;5032042;28;20529;-47
2022/10/19 09:59:34;;;;;;;4.10;1.60;;;14.40;1.00;;;;;;5032107;28;20402;-48
2022/10/19 10:02:17;;;;;;;6.30;1.40;;;14.70;1.00;;;;;;5030494;28;21023;-47
2022/10/19 10:05:15;;;;;;;12.53;2.17;;;15.00;1.00;;;;;;5032117;28;20401;-47
2022/10/19 10:07:41;;;;;;;11.77;2.20;;;15.40;1.00;;;;;;5019882;28;20792;-48
2022/10/19 10:10:22;;;;;;;9.37;1.90;;;15.50;1.00;;;;;;5031742;28;20421;-48
2022/10/19 10:12:48;;;;;;;7.40;1.73;;;15.70;1.00;;;;;;5031680;28;20191;-46
2022/10/19 10:15:22;;;;;;;8.97;2.03;;;16.00;1.00;;;;;;5031714;28;20851;-46
2022/10/19 10:17:48;;;;;;;8.40;1.63;;;16.30;1.00;;;;;;5031532;28;20425;-47
2022/10/19 10:20:22;;;;;;;8.27;1.63;;;17.10;1.00;;;;;;5031296;28;20437;-47
2022/10/19 10:22:56;;;;;;;5.90;1.43;;;17.90;1.00;;;;;;5030921;28;20479;-47
2022/10/19 10:25:33;;;;;;;6.43;1.67;;;19.30;1.00;;;;;;5031754;28;20418;-46
2022/10/19 10:28:15;;;;;;;4.80;1.63;;;20.20;1.00;;;;;;5024261;28;20454;-46
2022/10/19 10:30:44;;;;;;;3.83;1.30;;;20.70;1.00;;;;;;5016900;28;20436;-46
2022/10/19 10:33:17;;;;;;;4.03;1.40;;;21.70;1.00;;;;;;5032339;28;20453;-45
2022/10/19 10:35:52;;;;;;;5.53;2.00;;;22.40;1.00;;;;;;5011705;28;20892;-45
2022/10/19 10:38:22;;;;;;;7.20;1.73;;;21.70;1.00;;;;;;5013858;28;20444;-46
2022/10/19 10:40:53;;;;;;;5.60;1.53;;;20.50;1.00;;;;;;5031117;28;20518;-46
2022/10/19 10:43:25;;;;;;;5.00;1.63;;;19.20;1.00;;;;;;5030142;28;20464;-46
2022/10/19 10:45:53;;;;;;;6.33;1.50;;;18.20;1.00;;;;;;5030888;28;20484;-47
2022/10/19 10:48:34;;;;;;;10.77;1.90;;;18.00;1.00;;;;;;5031419;28;20414;-46
2022/10/19 10:51:00;;;;;;;5.10;1.57;;;19.20;1.00;;;;;;5031040;28;20501;-46
2022/10/19 10:53:32;;;;;;;10.57;2.20;;;19.50;1.00;;;;;;5030841;28;20533;-42
2022/10/19 10:55:57;;;;;;;8.50;1.67;;;19.00;1.00;;;;;;5030843;28;20541;-42
2022/10/19 10:58:35;;;;;;;8.80;1.80;;;18.50;1.00;;;;;;5031356;28;20468;-43
2022/10/19 11:01:06;;;;;;;8.57;1.70;;;17.90;1.00;;;;;;5030489;28;20323;-43
2022/10/19 11:03:34;;;;;;;11.37;2.00;;;17.40;1.00;;;;;;5030492;28;20437;-43
2022/10/19 11:06:01;;;;;;;10.37;2.30;;;17.00;1.00;;;;;;5030921;28;20414;-43
2022/10/19 11:08:55;;;;;;;8.17;1.87;;;17.30;1.00;;;;;;5031049;28;20488;-42
2022/10/19 11:11:26;;;;;;;11.10;2.20;;;18.40;1.00;;;;;;5037498;28;20438;-42
2022/10/19 11:13:53;;;;;;;7.93;1.93;;;18.60;1.00;;;;;;5039146;28;20477;-43
2022/10/19 11:16:41;;;;;;;5.70;1.77;;;18.50;1.00;;;;;;5030885;28;20418;-43
2022/10/19 11:19:16;;;;;;;10.90;1.90;;;19.80;1.00;;;;;;5030642;28;20437;-43
2022/10/19 11:21:49;;;;;;;5.33;1.87;;;21.60;1.00;;;;;;5029908;28;20467;-43
2022/10/19 11:24:48;;;;;;;6.27;1.67;;;22.70;1.00;;;;;;5030651;28;20429;-42
2022/10/19 11:27:50;;;;;;;7.97;1.53;;;21.60;1.00;;;;;;5030810;28;20475;-42
2022/10/19 11:30:17;;;;;;;9.90;2.30;;;20.10;1.00;;;;;;5030769;28;20425;-42
2022/10/19 11:33:05;;;;;;;2.73;1.10;;;19.40;1.00;;;;;;5030808;28;20410;-43
2022/10/19 11:35:33;;;;;;;9.63;2.13;;;18.40;1.00;;;;;;5034356;28;21812;-42
2022/10/19 11:38:20;;;;;;;3.63;1.40;;;17.70;1.00;;;;;;5034475;28;20512;-43
2022/10/19 11:41:20;;;;;;;5.87;1.60;;;18.70;1.00;;;;;;5034685;28;20452;-43
2022/10/19 11:44:01;;;;;;;3.93;1.20;;;21.10;1.00;;;;;;5034444;28;20938;-43
2022/10/19 11:46:32;;;;;;;3.50;1.40;;;23.10;1.00;;;;;;5034622;28;20536;-43
2022/10/19 11:49:14;;;;;;;4.47;1.30;;;24.20;1.00;;;;;;5034357;28;20438;-43
2022/10/19 11:51:52;;;;;;;5.30;1.60;;;25.00;1.00;;;;;;5034486;28;20883;-43
2022/10/19 11:54:40;;;;;;;8.03;2.13;;;25.40;1.00;;;;;;5034084;28;20413;-43
2022/10/19 11:57:22;;;;;;;3.80;1.33;;;25.80;99.90;;;;;;5040989;28;20519;-43
2022/10/19 12:00:02;;;;;;;4.17;1.20;;;25.10;99.90;;;;;;5033757;28;21004;-43
2022/10/19 12:03:02;;;;;;;3.63;1.20;;;25.30;99.90;;;;;;5041255;28;20476;-44
2022/10/19 12:05:39;;;;;;;3.93;1.00;;;26.30;99.90;;;;;;5033786;28;20464;-43
2022/10/19 12:08:17;;;;;;;6.47;1.23;;;25.90;99.90;;;;;;5033530;28;20772;-44
2022/10/19 12:11:02;;;;;;;5.50;1.53;;;25.00;99.90;;;;;;5034138;28;20421;-44
2022/10/19 12:13:43;;;;;;;5.63;1.77;;;24.80;99.90;;;;;;5034082;28;20401;-43
2022/10/19 12:16:12;;;;;;;3.10;1.30;;;24.00;99.90;;;;;;5034005;28;20401;-44
2022/10/19 12:18:48;;;;;;;3.07;1.40;;;24.00;99.90;;;;;;5033997;28;20441;-43
2022/10/19 12:21:25;;;;;;;2.27;1.20;;;24.90;99.90;;;;;;5033637;28;20863;-44
2022/10/19 12:23:51;;;;;;;2.50;1.00;;;25.90;99.90;;;;;;5032262;28;20437;-44
2022/10/19 12:26:20;;;;;;;3.93;1.40;;;26.30;99.90;;;;;;5036732;28;20434;-44
2022/10/19 12:28:53;;;;;;;5.43;1.20;;;26.10;99.90;;;;;;5033680;28;20417;-44
2022/10/19 12:31:20;;;;;;;3.37;1.27;;;26.30;99.90;;;;;;5034040;28;20903;-44
2022/10/19 12:33:52;;;;;;;3.30;1.50;;;25.60;99.90;;;;;;5034005;28;20413;-43
2022/10/19 12:36:38;;;;;;;6.87;1.50;;;25.20;99.90;;;;;;5032352;28;20782;-44
2022/10/19 12:39:25;;;;;;;2.90;1.20;;;24.90;99.90;;;;;;5041682;28;20801;-45
2022/10/19 12:42:02;;;;;;;4.27;1.23;;;25.40;99.90;;;;;;5029064;28;20469;-44
2022/10/19 12:45:05;;;;;;;5.13;1.67;;;25.60;99.90;;;;;;5032797;28;20974;-44
2022/10/19 12:47:31;;;;;;;5.50;1.27;;;25.60;99.90;;;;;;5033359;28;20933;-44
2022/10/19 12:49:57;;;;;;;3.87;1.30;;;25.60;99.90;;;;;;5033274;28;20498;-45
2022/10/19 12:52:51;;;;;;;3.60;1.20;;;26.20;99.90;;;;;;5033703;28;20617;-43
2022/10/19 12:55:16;;;;;;;3.37;1.50;;;26.60;99.90;;;;;;5033218;28;20418;-44
2022/10/19 12:57:47;;;;;;;3.50;1.00;;;26.80;99.90;;;;;;5033240;28;21061;-44
2022/10/19 13:00:24;;;;;;;4.23;1.10;;;26.90;99.90;;;;;;5033195;28;20187;-44
2022/10/19 13:03:14;;;;;;;6.87;1.47;;;27.00;99.90;;;;;;5033280;28;20460;-44
2022/10/19 13:05:40;;;;;;;2.87;1.20;;;27.40;99.90;;;;;;5032787;28;20432;-44
2022/10/19 13:08:06;;;;;;;1.33;1.00;;;27.10;99.90;;;;;;5033066;28;20406;-45